sensor_id;sensor_type;location;lat;lon;timestamp;P1;durP1;ratioP1;P2;durP2;ratioP2
65717;SDS011;52445;52.466;-1.016;2023-05-19T00:01:50;8.27;;;3.65;;
65717;SDS011;52445;52.466;-1.016;2023-05-19T00:04:17;7.70;;;3.67;;
65717;SDS011;52445;52.466;-1.016;2023-05-19T00:06:44;8.88;;;4.25;;
65717;SDS011;52445;52.466;-1.016;2023-05-19T00:09:16;9.98;;;4.05;;
65717;SDS011;52445;52.466;-1.016;2023-05-19T00:11:43;14.25;;;3.63;;
65717;SDS011;52445;52.466;-1.016;2023-05-19T00:14:10;10.65;;;3.58;;
65717;SDS011;52445;52.466;-1.016;2023-05-19T00:16:37;8.45;;;3.72;;
65717;SDS011;52445;52.466;-1.016;2023-05-19T00:19:04;9.40;;;3.92;;
65717;SDS011;52445;52.466;-1.016;2023-05-19T00:21:31;7.97;;;3.85;;
65717;SDS011;52445;52.466;-1.016;2023-05-19T00:23:58;11.70;;;4.57;;
65717;SDS011;52445;52.466;-1.016;2023-05-19T00:26:25;11.70;;;4.15;;
65717;SDS011;52445;52.466;-1.016;2023-05-19T00:28:52;12.63;;;4.97;;
65717;SDS011;52445;52.466;-1.016;2023-05-19T00:31:19;11.40;;;5.28;;
65717;SDS011;52445;52.466;-1.016;2023-05-19T00:33:46;9.60;;;4.28;;
65717;SDS011;52445;52.466;-1.016;2023-05-19T00:36:12;8.05;;;4.25;;
65717;SDS011;52445;52.466;-1.016;2023-05-19T00:38:39;12.05;;;5.28;;
65717;SDS011;52445;52.466;-1.016;2023-05-19T00:41:06;8.85;;;3.88;;
65717;SDS011;52445;52.466;-1.016;2023-05-19T00:43:32;12.25;;;4.63;;
65717;SDS011;52445;52.466;-1.016;2023-05-19T00:46:00;12.55;;;4.32;;
65717;SDS011;52445;52.466;-1.016;2023-05-19T00:48:27;11.73;;;4.97;;
65717;SDS011;52445;52.466;-1.016;2023-05-19T00:50:54;9.55;;;4.10;;
65717;SDS011;52445;52.466;-1.016;2023-05-19T00:53:27;10.73;;;4.40;;
65717;SDS011;52445;52.466;-1.016;2023-05-19T00:55:54;10.68;;;4.22;;
65717;SDS011;52445;52.466;-1.016;2023-05-19T00:58:21;10.35;;;4.72;;
65717;SDS011;52445;52.466;-1.016;2023-05-19T01:00:50;11.63;;;4.40;;
65717;SDS011;52445;52.466;-1.016;2023-05-19T01:03:18;8.10;;;4.18;;
65717;SDS011;52445;52.466;-1.016;2023-05-19T01:05:46;9.60;;;4.13;;
65717;SDS011;52445;52.466;-1.016;2023-05-19T01:08:14;13.77;;;4.55;;
65717;SDS011;52445;52.466;-1.016;2023-05-19T01:10:41;9.48;;;3.90;;
65717;SDS011;52445;52.466;-1.016;2023-05-19T01:13:08;11.27;;;3.78;;
65717;SDS011;52445;52.466;-1.016;2023-05-19T01:15:38;6.88;;;3.45;;
65717;SDS011;52445;52.466;-1.016;2023-05-19T01:18:23;9.77;;;3.92;;
65717;SDS011;52445;52.466;-1.016;2023-05-19T01:21:01;10.88;;;4.00;;
65717;SDS011;52445;52.466;-1.016;2023-05-19T01:31:35;9.93;;;4.30;;
65717;SDS011;52445;52.466;-1.016;2023-05-19T01:34:03;10.27;;;4.75;;
65717;SDS011;52445;52.466;-1.016;2023-05-19T01:36:31;13.13;;;4.70;;
65717;SDS011;52445;52.466;-1.016;2023-05-19T01:38:59;8.90;;;3.83;;
65717;SDS011;52445;52.466;-1.016;2023-05-19T01:41:27;9.88;;;4.07;;
65717;SDS011;52445;52.466;-1.016;2023-05-19T01:43:55;8.18;;;4.05;;
65717;SDS011;52445;52.466;-1.016;2023-05-19T01:46:23;9.30;;;4.25;;
65717;SDS011;52445;52.466;-1.016;2023-05-19T01:48:50;9.02;;;4.05;;
65717;SDS011;52445;52.466;-1.016;2023-05-19T01:51:17;10.73;;;4.28;;
65717;SDS011;52445;52.466;-1.016;2023-05-19T01:53:44;9.18;;;4.35;;
65717;SDS011;52445;52.466;-1.016;2023-05-19T01:56:11;8.13;;;3.80;;
65717;SDS011;52445;52.466;-1.016;2023-05-19T01:58:47;13.57;;;4.10;;
65717;SDS011;52445;52.466;-1.016;2023-05-19T02:04:02;7.85;;;3.80;;
65717;SDS011;52445;52.466;-1.016;2023-05-19T02:06:45;8.77;;;3.47;;
65717;SDS011;52445;52.466;-1.016;2023-05-19T02:12:39;10.13;;;3.67;;
65717;SDS011;52445;52.466;-1.016;2023-05-19T02:15:11;10.95;;;4.18;;
65717;SDS011;52445;52.466;-1.016;2023-05-19T02:17:42;8.50;;;3.90;;
65717;SDS011;52445;52.466;-1.016;2023-05-19T02:20:14;7.82;;;3.05;;
65717;SDS011;52445;52.466;-1.016;2023-05-19T02:22:41;9.88;;;3.50;;
65717;SDS011;52445;52.466;-1.016;2023-05-19T02:25:08;10.55;;;3.22;;
65717;SDS011;52445;52.466;-1.016;2023-05-19T02:27:36;9.05;;;3.80;;
65717;SDS011;52445;52.466;-1.016;2023-05-19T02:30:04;6.30;;;3.50;;
65717;SDS011;52445;52.466;-1.016;2023-05-19T02:32:31;9.30;;;3.25;;
65717;SDS011;52445;52.466;-1.016;2023-05-19T02:34:58;11.77;;;3.78;;
65717;SDS011;52445;52.466;-1.016;2023-05-19T02:37:25;11.18;;;3.80;;
65717;SDS011;52445;52.466;-1.016;2023-05-19T02:39:54;11.40;;;4.15;;
65717;SDS011;52445;52.466;-1.016;2023-05-19T02:42:20;10.07;;;3.83;;
65717;SDS011;52445;52.466;-1.016;2023-05-19T02:44:47;8.80;;;3.13;;
65717;SDS011;52445;52.466;-1.016;2023-05-19T02:47:14;10.32;;;4.55;;
65717;SDS011;52445;52.466;-1.016;2023-05-19T02:49:41;8.82;;;3.40;;
65717;SDS011;52445;52.466;-1.016;2023-05-19T02:52:09;8.13;;;3.53;;
65717;SDS011;52445;52.466;-1.016;2023-05-19T02:54:37;12.23;;;3.67;;
65717;SDS011;52445;52.466;-1.016;2023-05-19T02:57:04;14.25;;;4.20;;
65717;SDS011;52445;52.466;-1.016;2023-05-19T02:59:31;11.73;;;4.18;;
65717;SDS011;52445;52.466;-1.016;2023-05-19T03:01:59;11.30;;;4.10;;
65717;SDS011;52445;52.466;-1.016;2023-05-19T03:04:27;9.23;;;3.95;;
65717;SDS011;52445;52.466;-1.016;2023-05-19T03:06:55;10.73;;;2.88;;
65717;SDS011;52445;52.466;-1.016;2023-05-19T03:09:22;12.30;;;3.67;;
65717;SDS011;52445;52.466;-1.016;2023-05-19T03:11:49;9.52;;;3.50;;
65717;SDS011;52445;52.466;-1.016;2023-05-19T03:14:16;9.52;;;4.22;;
65717;SDS011;52445;52.466;-1.016;2023-05-19T03:16:43;10.82;;;3.47;;
65717;SDS011;52445;52.466;-1.016;2023-05-19T03:19:11;8.60;;;3.47;;
65717;SDS011;52445;52.466;-1.016;2023-05-19T03:21:37;9.68;;;3.63;;
65717;SDS011;52445;52.466;-1.016;2023-05-19T03:24:04;8.35;;;3.70;;
65717;SDS011;52445;52.466;-1.016;2023-05-19T03:26:31;9.13;;;3.08;;
65717;SDS011;52445;52.466;-1.016;2023-05-19T03:28:58;8.90;;;4.00;;
65717;SDS011;52445;52.466;-1.016;2023-05-19T03:31:25;11.88;;;4.13;;
65717;SDS011;52445;52.466;-1.016;2023-05-19T03:33:52;8.75;;;3.63;;
65717;SDS011;52445;52.466;-1.016;2023-05-19T03:36:18;10.27;;;4.05;;
65717;SDS011;52445;52.466;-1.016;2023-05-19T03:38:45;9.27;;;3.20;;
65717;SDS011;52445;52.466;-1.016;2023-05-19T03:41:11;11.77;;;3.58;;
65717;SDS011;52445;52.466;-1.016;2023-05-19T03:43:38;9.32;;;3.30;;
65717;SDS011;52445;52.466;-1.016;2023-05-19T03:46:05;10.25;;;3.70;;
65717;SDS011;52445;52.466;-1.016;2023-05-19T03:48:31;9.18;;;3.75;;
65717;SDS011;52445;52.466;-1.016;2023-05-19T03:50:58;9.32;;;4.22;;
65717;SDS011;52445;52.466;-1.016;2023-05-19T03:53:25;11.32;;;4.00;;
65717;SDS011;52445;52.466;-1.016;2023-05-19T03:55:51;12.85;;;3.90;;
65717;SDS011;52445;52.466;-1.016;2023-05-19T03:58:18;10.48;;;3.70;;
65717;SDS011;52445;52.466;-1.016;2023-05-19T04:00:45;9.65;;;4.15;;
65717;SDS011;52445;52.466;-1.016;2023-05-19T04:03:11;9.40;;;3.50;;
65717;SDS011;52445;52.466;-1.016;2023-05-19T04:05:38;11.80;;;3.70;;
65717;SDS011;52445;52.466;-1.016;2023-05-19T04:08:05;14.23;;;4.40;;
65717;SDS011;52445;52.466;-1.016;2023-05-19T04:10:31;11.10;;;4.13;;
65717;SDS011;52445;52.466;-1.016;2023-05-19T04:12:58;10.32;;;3.70;;
65717;SDS011;52445;52.466;-1.016;2023-05-19T04:15:25;11.23;;;4.47;;
65717;SDS011;52445;52.466;-1.016;2023-05-19T04:17:52;12.07;;;3.95;;
65717;SDS011;52445;52.466;-1.016;2023-05-19T04:20:19;9.90;;;3.97;;
65717;SDS011;52445;52.466;-1.016;2023-05-19T04:22:45;8.23;;;3.55;;
65717;SDS011;52445;52.466;-1.016;2023-05-19T04:25:12;11.55;;;5.25;;
65717;SDS011;52445;52.466;-1.016;2023-05-19T04:27:39;9.40;;;3.65;;
65717;SDS011;52445;52.466;-1.016;2023-05-19T04:30:06;9.55;;;3.63;;
65717;SDS011;52445;52.466;-1.016;2023-05-19T04:32:33;9.95;;;4.22;;
65717;SDS011;52445;52.466;-1.016;2023-05-19T04:35:02;9.25;;;3.58;;
65717;SDS011;52445;52.466;-1.016;2023-05-19T04:37:30;11.35;;;3.65;;
65717;SDS011;52445;52.466;-1.016;2023-05-19T04:39:56;10.02;;;3.63;;
65717;SDS011;52445;52.466;-1.016;2023-05-19T04:42:23;13.65;;;4.13;;
65717;SDS011;52445;52.466;-1.016;2023-05-19T04:44:51;11.23;;;3.70;;
65717;SDS011;52445;52.466;-1.016;2023-05-19T04:47:18;12.30;;;3.85;;
65717;SDS011;52445;52.466;-1.016;2023-05-19T04:49:46;12.82;;;4.20;;
65717;SDS011;52445;52.466;-1.016;2023-05-19T04:52:13;11.70;;;4.75;;
65717;SDS011;52445;52.466;-1.016;2023-05-19T04:54:41;9.88;;;4.70;;
65717;SDS011;52445;52.466;-1.016;2023-05-19T04:57:07;12.30;;;4.32;;
65717;SDS011;52445;52.466;-1.016;2023-05-19T04:59:35;10.88;;;3.88;;
65717;SDS011;52445;52.466;-1.016;2023-05-19T05:02:02;9.45;;;4.05;;
65717;SDS011;52445;52.466;-1.016;2023-05-19T05:04:29;13.10;;;3.90;;
65717;SDS011;52445;52.466;-1.016;2023-05-19T05:06:56;10.45;;;3.80;;
65717;SDS011;52445;52.466;-1.016;2023-05-19T05:09:22;11.82;;;4.47;;
65717;SDS011;52445;52.466;-1.016;2023-05-19T05:11:49;12.75;;;4.18;;
65717;SDS011;52445;52.466;-1.016;2023-05-19T05:14:16;12.55;;;3.83;;
65717;SDS011;52445;52.466;-1.016;2023-05-19T05:16:43;13.15;;;3.50;;
65717;SDS011;52445;52.466;-1.016;2023-05-19T05:19:11;9.85;;;4.47;;
65717;SDS011;52445;52.466;-1.016;2023-05-19T05:21:38;9.02;;;4.07;;
65717;SDS011;52445;52.466;-1.016;2023-05-19T05:24:05;10.23;;;4.00;;
65717;SDS011;52445;52.466;-1.016;2023-05-19T05:26:32;9.30;;;4.45;;
65717;SDS011;52445;52.466;-1.016;2023-05-19T05:28:58;13.07;;;4.28;;
65717;SDS011;52445;52.466;-1.016;2023-05-19T05:31:25;12.27;;;4.25;;
65717;SDS011;52445;52.466;-1.016;2023-05-19T05:33:52;11.15;;;4.32;;
65717;SDS011;52445;52.466;-1.016;2023-05-19T05:36:18;12.18;;;4.55;;
65717;SDS011;52445;52.466;-1.016;2023-05-19T05:38:45;9.38;;;4.28;;
65717;SDS011;52445;52.466;-1.016;2023-05-19T05:41:12;11.90;;;3.72;;
65717;SDS011;52445;52.466;-1.016;2023-05-19T05:43:39;9.48;;;3.42;;
65717;SDS011;52445;52.466;-1.016;2023-05-19T05:46:05;10.70;;;4.13;;
65717;SDS011;52445;52.466;-1.016;2023-05-19T05:48:32;9.90;;;4.30;;
65717;SDS011;52445;52.466;-1.016;2023-05-19T05:50:59;12.80;;;4.25;;
65717;SDS011;52445;52.466;-1.016;2023-05-19T05:53:27;15.02;;;4.28;;
65717;SDS011;52445;52.466;-1.016;2023-05-19T05:55:57;9.45;;;4.75;;
65717;SDS011;52445;52.466;-1.016;2023-05-19T05:58:24;10.13;;;3.88;;
65717;SDS011;52445;52.466;-1.016;2023-05-19T06:00:51;8.63;;;3.63;;
65717;SDS011;52445;52.466;-1.016;2023-05-19T06:03:18;8.35;;;3.47;;
65717;SDS011;52445;52.466;-1.016;2023-05-19T06:05:49;12.45;;;4.55;;
65717;SDS011;52445;52.466;-1.016;2023-05-19T06:08:16;11.48;;;4.35;;
65717;SDS011;52445;52.466;-1.016;2023-05-19T06:10:43;10.52;;;4.32;;
65717;SDS011;52445;52.466;-1.016;2023-05-19T06:13:12;9.35;;;3.83;;
65717;SDS011;52445;52.466;-1.016;2023-05-19T06:15:41;13.25;;;4.25;;
65717;SDS011;52445;52.466;-1.016;2023-05-19T06:18:08;10.00;;;4.25;;
65717;SDS011;52445;52.466;-1.016;2023-05-19T06:20:35;13.35;;;4.13;;
65717;SDS011;52445;52.466;-1.016;2023-05-19T06:23:02;11.23;;;3.53;;
65717;SDS011;52445;52.466;-1.016;2023-05-19T06:25:29;10.20;;;3.80;;
65717;SDS011;52445;52.466;-1.016;2023-05-19T06:27:56;9.80;;;3.95;;
65717;SDS011;52445;52.466;-1.016;2023-05-19T06:30:23;13.65;;;4.63;;
65717;SDS011;52445;52.466;-1.016;2023-05-19T06:32:49;8.20;;;3.90;;
65717;SDS011;52445;52.466;-1.016;2023-05-19T06:35:16;13.50;;;4.95;;
65717;SDS011;52445;52.466;-1.016;2023-05-19T06:37:43;11.55;;;4.22;;
65717;SDS011;52445;52.466;-1.016;2023-05-19T06:40:10;13.73;;;4.35;;
65717;SDS011;52445;52.466;-1.016;2023-05-19T06:42:37;12.95;;;4.55;;
65717;SDS011;52445;52.466;-1.016;2023-05-19T06:45:04;12.45;;;4.45;;
65717;SDS011;52445;52.466;-1.016;2023-05-19T06:47:31;10.70;;;4.30;;
65717;SDS011;52445;52.466;-1.016;2023-05-19T06:49:57;9.95;;;4.18;;
65717;SDS011;52445;52.466;-1.016;2023-05-19T06:52:24;9.18;;;4.65;;
65717;SDS011;52445;52.466;-1.016;2023-05-19T06:54:51;13.55;;;4.57;;
65717;SDS011;52445;52.466;-1.016;2023-05-19T06:57:17;17.33;;;5.40;;
65717;SDS011;52445;52.466;-1.016;2023-05-19T06:59:44;11.32;;;4.88;;
65717;SDS011;52445;52.466;-1.016;2023-05-19T07:02:11;10.95;;;5.47;;
65717;SDS011;52445;52.466;-1.016;2023-05-19T07:04:39;9.57;;;4.47;;
65717;SDS011;52445;52.466;-1.016;2023-05-19T07:07:06;9.30;;;4.38;;
65717;SDS011;52445;52.466;-1.016;2023-05-19T07:09:33;18.48;;;5.18;;
65717;SDS011;52445;52.466;-1.016;2023-05-19T07:12:00;10.57;;;4.30;;
65717;SDS011;52445;52.466;-1.016;2023-05-19T07:14:28;10.65;;;4.43;;
65717;SDS011;52445;52.466;-1.016;2023-05-19T07:16:55;11.88;;;4.63;;
65717;SDS011;52445;52.466;-1.016;2023-05-19T07:19:21;10.48;;;4.95;;
65717;SDS011;52445;52.466;-1.016;2023-05-19T07:21:49;14.30;;;4.68;;
65717;SDS011;52445;52.466;-1.016;2023-05-19T07:24:16;10.55;;;3.95;;
65717;SDS011;52445;52.466;-1.016;2023-05-19T07:26:42;14.25;;;4.95;;
65717;SDS011;52445;52.466;-1.016;2023-05-19T07:29:09;14.90;;;4.82;;
65717;SDS011;52445;52.466;-1.016;2023-05-19T07:31:36;12.52;;;4.32;;
65717;SDS011;52445;52.466;-1.016;2023-05-19T07:34:03;15.63;;;5.15;;
65717;SDS011;52445;52.466;-1.016;2023-05-19T07:36:30;12.05;;;5.38;;
65717;SDS011;52445;52.466;-1.016;2023-05-19T07:38:57;9.77;;;4.55;;
65717;SDS011;52445;52.466;-1.016;2023-05-19T07:41:24;11.93;;;5.25;;
65717;SDS011;52445;52.466;-1.016;2023-05-19T07:43:51;10.30;;;4.15;;
65717;SDS011;52445;52.466;-1.016;2023-05-19T07:46:18;11.93;;;5.10;;
65717;SDS011;52445;52.466;-1.016;2023-05-19T07:48:45;12.02;;;5.15;;
65717;SDS011;52445;52.466;-1.016;2023-05-19T07:51:12;11.88;;;5.22;;
65717;SDS011;52445;52.466;-1.016;2023-05-19T07:53:39;11.93;;;5.45;;
65717;SDS011;52445;52.466;-1.016;2023-05-19T07:56:06;14.88;;;4.82;;
65717;SDS011;52445;52.466;-1.016;2023-05-19T07:58:33;12.95;;;4.53;;
65717;SDS011;52445;52.466;-1.016;2023-05-19T08:01:00;10.55;;;4.75;;
65717;SDS011;52445;52.466;-1.016;2023-05-19T08:03:26;12.95;;;4.53;;
65717;SDS011;52445;52.466;-1.016;2023-05-19T08:05:54;13.90;;;5.22;;
65717;SDS011;52445;52.466;-1.016;2023-05-19T08:08:21;10.02;;;4.50;;
65717;SDS011;52445;52.466;-1.016;2023-05-19T08:10:48;12.70;;;4.80;;
65717;SDS011;52445;52.466;-1.016;2023-05-19T08:13:15;13.30;;;5.00;;
65717;SDS011;52445;52.466;-1.016;2023-05-19T08:15:41;9.38;;;4.75;;
65717;SDS011;52445;52.466;-1.016;2023-05-19T08:18:08;13.70;;;4.78;;
65717;SDS011;52445;52.466;-1.016;2023-05-19T08:20:35;11.20;;;5.05;;
65717;SDS011;52445;52.466;-1.016;2023-05-19T08:23:02;12.48;;;4.65;;
65717;SDS011;52445;52.466;-1.016;2023-05-19T08:25:29;13.13;;;4.90;;
65717;SDS011;52445;52.466;-1.016;2023-05-19T08:28:06;11.05;;;5.60;;
65717;SDS011;52445;52.466;-1.016;2023-05-19T08:30:32;11.05;;;4.78;;
65717;SDS011;52445;52.466;-1.016;2023-05-19T08:32:59;11.27;;;4.45;;
65717;SDS011;52445;52.466;-1.016;2023-05-19T08:35:27;13.27;;;5.75;;
65717;SDS011;52445;52.466;-1.016;2023-05-19T08:37:54;12.25;;;5.00;;
65717;SDS011;52445;52.466;-1.016;2023-05-19T08:40:21;11.82;;;4.97;;
65717;SDS011;52445;52.466;-1.016;2023-05-19T08:42:48;12.70;;;4.75;;
65717;SDS011;52445;52.466;-1.016;2023-05-19T08:45:15;11.48;;;5.30;;
65717;SDS011;52445;52.466;-1.016;2023-05-19T08:47:44;12.60;;;5.30;;
65717;SDS011;52445;52.466;-1.016;2023-05-19T08:50:11;10.77;;;4.90;;
65717;SDS011;52445;52.466;-1.016;2023-05-19T08:57:59;14.13;;;6.80;;
65717;SDS011;52445;52.466;-1.016;2023-05-19T09:00:28;14.40;;;5.47;;
65717;SDS011;52445;52.466;-1.016;2023-05-19T09:02:57;12.10;;;5.90;;
65717;SDS011;52445;52.466;-1.016;2023-05-19T09:05:43;10.13;;;5.53;;
65717;SDS011;52445;52.466;-1.016;2023-05-19T09:08:11;10.98;;;5.53;;
65717;SDS011;52445;52.466;-1.016;2023-05-19T09:10:38;11.43;;;5.35;;
65717;SDS011;52445;52.466;-1.016;2023-05-19T09:13:05;10.20;;;5.57;;
65717;SDS011;52445;52.466;-1.016;2023-05-19T09:15:32;9.95;;;4.82;;
65717;SDS011;52445;52.466;-1.016;2023-05-19T09:20:37;9.23;;;5.78;;
65717;SDS011;52445;52.466;-1.016;2023-05-19T09:23:05;10.48;;;4.95;;
65717;SDS011;52445;52.466;-1.016;2023-05-19T09:25:33;10.48;;;4.75;;
65717;SDS011;52445;52.466;-1.016;2023-05-19T09:28:00;8.10;;;4.45;;
65717;SDS011;52445;52.466;-1.016;2023-05-19T09:30:26;7.45;;;4.32;;
65717;SDS011;52445;52.466;-1.016;2023-05-19T09:32:53;7.97;;;4.78;;
65717;SDS011;52445;52.466;-1.016;2023-05-19T09:35:20;11.98;;;4.75;;
65717;SDS011;52445;52.466;-1.016;2023-05-19T09:37:46;8.27;;;4.97;;
65717;SDS011;52445;52.466;-1.016;2023-05-19T09:40:13;7.70;;;4.45;;
65717;SDS011;52445;52.466;-1.016;2023-05-19T09:42:41;9.40;;;3.72;;
65717;SDS011;52445;52.466;-1.016;2023-05-19T09:45:09;11.52;;;4.68;;
65717;SDS011;52445;52.466;-1.016;2023-05-19T09:47:37;8.90;;;4.85;;
65717;SDS011;52445;52.466;-1.016;2023-05-19T09:50:05;12.60;;;4.53;;
65717;SDS011;52445;52.466;-1.016;2023-05-19T09:52:35;9.35;;;4.50;;
65717;SDS011;52445;52.466;-1.016;2023-05-19T09:55:08;7.40;;;4.80;;
65717;SDS011;52445;52.466;-1.016;2023-05-19T09:57:36;9.98;;;5.90;;
65717;SDS011;52445;52.466;-1.016;2023-05-19T10:00:04;10.60;;;4.65;;
65717;SDS011;52445;52.466;-1.016;2023-05-19T10:02:40;9.30;;;5.15;;
65717;SDS011;52445;52.466;-1.016;2023-05-19T10:05:11;11.18;;;5.72;;
65717;SDS011;52445;52.466;-1.016;2023-05-19T10:07:43;8.27;;;4.20;;
65717;SDS011;52445;52.466;-1.016;2023-05-19T10:10:11;9.40;;;4.80;;
65717;SDS011;52445;52.466;-1.016;2023-05-19T10:12:39;10.98;;;4.78;;
65717;SDS011;52445;52.466;-1.016;2023-05-19T10:15:07;10.15;;;5.15;;
65717;SDS011;52445;52.466;-1.016;2023-05-19T10:17:37;7.30;;;4.30;;
65717;SDS011;52445;52.466;-1.016;2023-05-19T10:20:07;8.23;;;4.68;;
65717;SDS011;52445;52.466;-1.016;2023-05-19T10:22:36;12.77;;;5.32;;
65717;SDS011;52445;52.466;-1.016;2023-05-19T10:25:04;9.35;;;5.78;;
65717;SDS011;52445;52.466;-1.016;2023-05-19T10:27:33;7.97;;;5.18;;
65717;SDS011;52445;52.466;-1.016;2023-05-19T10:30:05;9.75;;;4.93;;
65717;SDS011;52445;52.466;-1.016;2023-05-19T10:32:38;10.02;;;5.20;;
65717;SDS011;52445;52.466;-1.016;2023-05-19T10:37:45;7.88;;;3.08;;
65717;SDS011;52445;52.466;-1.016;2023-05-19T10:40:28;8.98;;;3.47;;
65717;SDS011;52445;52.466;-1.016;2023-05-19T10:43:01;8.75;;;4.15;;
65717;SDS011;52445;52.466;-1.016;2023-05-19T10:45:40;6.75;;;3.20;;
65717;SDS011;52445;52.466;-1.016;2023-05-19T10:48:14;6.47;;;3.13;;
65717;SDS011;52445;52.466;-1.016;2023-05-19T10:50:42;9.18;;;3.97;;
65717;SDS011;52445;52.466;-1.016;2023-05-19T10:53:18;10.50;;;3.60;;
65717;SDS011;52445;52.466;-1.016;2023-05-19T11:01:20;7.38;;;3.50;;
65717;SDS011;52445;52.466;-1.016;2023-05-19T11:03:50;9.57;;;4.55;;
65717;SDS011;52445;52.466;-1.016;2023-05-19T11:06:19;6.90;;;3.65;;
65717;SDS011;52445;52.466;-1.016;2023-05-19T11:08:51;7.97;;;3.15;;
65717;SDS011;52445;52.466;-1.016;2023-05-19T11:11:18;6.07;;;2.97;;
65717;SDS011;52445;52.466;-1.016;2023-05-19T11:13:50;7.85;;;3.15;;
65717;SDS011;52445;52.466;-1.016;2023-05-19T11:16:18;8.65;;;3.42;;
65717;SDS011;52445;52.466;-1.016;2023-05-19T11:18:52;9.73;;;3.72;;
65717;SDS011;52445;52.466;-1.016;2023-05-19T11:21:20;10.65;;;3.70;;
65717;SDS011;52445;52.466;-1.016;2023-05-19T11:23:46;8.13;;;3.10;;
65717;SDS011;52445;52.466;-1.016;2023-05-19T11:26:13;9.88;;;4.20;;
65717;SDS011;52445;52.466;-1.016;2023-05-19T11:28:41;7.35;;;3.50;;
65717;SDS011;52445;52.466;-1.016;2023-05-19T11:31:08;10.25;;;3.53;;
65717;SDS011;52445;52.466;-1.016;2023-05-19T11:33:36;7.90;;;3.60;;
65717;SDS011;52445;52.466;-1.016;2023-05-19T11:36:03;11.45;;;4.57;;
65717;SDS011;52445;52.466;-1.016;2023-05-19T11:38:30;11.65;;;5.15;;
65717;SDS011;52445;52.466;-1.016;2023-05-19T11:40:57;13.90;;;5.82;;
65717;SDS011;52445;52.466;-1.016;2023-05-19T11:43:25;11.93;;;5.93;;
65717;SDS011;52445;52.466;-1.016;2023-05-19T11:45:53;12.35;;;5.70;;
65717;SDS011;52445;52.466;-1.016;2023-05-19T11:48:20;12.25;;;6.13;;
65717;SDS011;52445;52.466;-1.016;2023-05-19T11:50:47;16.25;;;6.82;;
65717;SDS011;52445;52.466;-1.016;2023-05-19T11:53:15;15.57;;;7.15;;
65717;SDS011;52445;52.466;-1.016;2023-05-19T11:55:44;14.93;;;7.07;;
65717;SDS011;52445;52.466;-1.016;2023-05-19T11:58:12;14.25;;;6.45;;
65717;SDS011;52445;52.466;-1.016;2023-05-19T12:00:40;15.70;;;6.75;;
65717;SDS011;52445;52.466;-1.016;2023-05-19T12:03:08;15.40;;;6.68;;
65717;SDS011;52445;52.466;-1.016;2023-05-19T12:05:36;19.23;;;6.72;;
65717;SDS011;52445;52.466;-1.016;2023-05-19T12:08:09;14.10;;;6.93;;
65717;SDS011;52445;52.466;-1.016;2023-05-19T12:10:37;15.70;;;6.30;;
65717;SDS011;52445;52.466;-1.016;2023-05-19T12:13:04;15.48;;;7.47;;
65717;SDS011;52445;52.466;-1.016;2023-05-19T12:15:34;15.95;;;5.97;;
65717;SDS011;52445;52.466;-1.016;2023-05-19T12:18:01;15.45;;;6.75;;
65717;SDS011;52445;52.466;-1.016;2023-05-19T12:20:28;14.95;;;6.13;;
65717;SDS011;52445;52.466;-1.016;2023-05-19T12:23:01;15.68;;;7.00;;
65717;SDS011;52445;52.466;-1.016;2023-05-19T12:25:28;15.57;;;6.30;;
65717;SDS011;52445;52.466;-1.016;2023-05-19T12:27:59;15.02;;;6.43;;
65717;SDS011;52445;52.466;-1.016;2023-05-19T12:30:30;14.07;;;5.90;;
65717;SDS011;52445;52.466;-1.016;2023-05-19T12:32:58;15.95;;;6.05;;
65717;SDS011;52445;52.466;-1.016;2023-05-19T12:35:28;13.60;;;6.15;;
65717;SDS011;52445;52.466;-1.016;2023-05-19T12:37:55;13.60;;;5.93;;
65717;SDS011;52445;52.466;-1.016;2023-05-19T12:40:22;17.23;;;6.97;;
65717;SDS011;52445;52.466;-1.016;2023-05-19T12:42:49;15.38;;;6.18;;
65717;SDS011;52445;52.466;-1.016;2023-05-19T12:45:20;14.10;;;6.53;;
65717;SDS011;52445;52.466;-1.016;2023-05-19T12:47:49;13.20;;;6.03;;
65717;SDS011;52445;52.466;-1.016;2023-05-19T12:52:46;14.32;;;5.90;;
65717;SDS011;52445;52.466;-1.016;2023-05-19T12:55:17;12.27;;;5.35;;
65717;SDS011;52445;52.466;-1.016;2023-05-19T12:57:49;16.38;;;6.45;;
65717;SDS011;52445;52.466;-1.016;2023-05-19T13:00:23;15.30;;;7.20;;
65717;SDS011;52445;52.466;-1.016;2023-05-19T13:02:58;20.80;;;6.88;;
65717;SDS011;52445;52.466;-1.016;2023-05-19T13:05:39;16.92;;;6.35;;
65717;SDS011;52445;52.466;-1.016;2023-05-19T13:08:11;14.38;;;5.68;;
65717;SDS011;52445;52.466;-1.016;2023-05-19T13:10:40;12.70;;;5.47;;
65717;SDS011;52445;52.466;-1.016;2023-05-19T13:13:08;11.70;;;5.45;;
65717;SDS011;52445;52.466;-1.016;2023-05-19T13:15:36;12.52;;;5.35;;
65717;SDS011;52445;52.466;-1.016;2023-05-19T13:18:06;16.50;;;6.07;;
65717;SDS011;52445;52.466;-1.016;2023-05-19T13:20:34;14.15;;;5.95;;
65717;SDS011;52445;52.466;-1.016;2023-05-19T13:23:02;10.90;;;5.65;;
65717;SDS011;52445;52.466;-1.016;2023-05-19T13:25:30;17.08;;;6.13;;
65717;SDS011;52445;52.466;-1.016;2023-05-19T13:28:00;15.63;;;5.93;;
65717;SDS011;52445;52.466;-1.016;2023-05-19T13:32:55;11.10;;;5.60;;
65717;SDS011;52445;52.466;-1.016;2023-05-19T13:35:22;13.73;;;5.22;;
65717;SDS011;52445;52.466;-1.016;2023-05-19T13:37:49;15.02;;;5.20;;
65717;SDS011;52445;52.466;-1.016;2023-05-19T13:40:16;11.55;;;4.90;;
65717;SDS011;52445;52.466;-1.016;2023-05-19T13:42:43;12.15;;;4.80;;
65717;SDS011;52445;52.466;-1.016;2023-05-19T13:45:10;9.95;;;4.20;;
65717;SDS011;52445;52.466;-1.016;2023-05-19T13:47:37;10.93;;;4.30;;
65717;SDS011;52445;52.466;-1.016;2023-05-19T13:50:04;11.50;;;5.15;;
65717;SDS011;52445;52.466;-1.016;2023-05-19T13:52:31;9.30;;;4.57;;
65717;SDS011;52445;52.466;-1.016;2023-05-19T13:54:58;9.93;;;4.97;;
65717;SDS011;52445;52.466;-1.016;2023-05-19T13:57:25;9.23;;;3.40;;
65717;SDS011;52445;52.466;-1.016;2023-05-19T13:59:53;8.43;;;3.83;;
65717;SDS011;52445;52.466;-1.016;2023-05-19T14:02:28;9.07;;;3.63;;
65717;SDS011;52445;52.466;-1.016;2023-05-19T14:04:55;8.85;;;3.58;;
65717;SDS011;52445;52.466;-1.016;2023-05-19T14:07:22;9.90;;;3.85;;
65717;SDS011;52445;52.466;-1.016;2023-05-19T14:09:49;9.13;;;3.70;;
65717;SDS011;52445;52.466;-1.016;2023-05-19T14:12:17;8.82;;;4.13;;
65717;SDS011;52445;52.466;-1.016;2023-05-19T14:14:48;10.55;;;4.22;;
65717;SDS011;52445;52.466;-1.016;2023-05-19T14:17:15;9.70;;;3.63;;
65717;SDS011;52445;52.466;-1.016;2023-05-19T14:19:41;10.68;;;3.65;;
65717;SDS011;52445;52.466;-1.016;2023-05-19T14:22:08;8.85;;;3.78;;
65717;SDS011;52445;52.466;-1.016;2023-05-19T14:24:35;8.82;;;4.78;;
65717;SDS011;52445;52.466;-1.016;2023-05-19T14:27:02;7.85;;;3.63;;
65717;SDS011;52445;52.466;-1.016;2023-05-19T14:29:29;7.93;;;3.47;;
65717;SDS011;52445;52.466;-1.016;2023-05-19T14:31:56;7.50;;;3.30;;
65717;SDS011;52445;52.466;-1.016;2023-05-19T14:34:23;9.73;;;3.92;;
65717;SDS011;52445;52.466;-1.016;2023-05-19T14:36:50;8.23;;;4.05;;
65717;SDS011;52445;52.466;-1.016;2023-05-19T14:39:17;8.63;;;3.92;;
65717;SDS011;52445;52.466;-1.016;2023-05-19T14:41:44;7.22;;;3.17;;
65717;SDS011;52445;52.466;-1.016;2023-05-19T14:44:10;6.07;;;3.22;;
65717;SDS011;52445;52.466;-1.016;2023-05-19T14:46:37;7.85;;;3.40;;
65717;SDS011;52445;52.466;-1.016;2023-05-19T14:49:03;10.15;;;3.60;;
65717;SDS011;52445;52.466;-1.016;2023-05-19T14:51:31;8.35;;;3.58;;
65717;SDS011;52445;52.466;-1.016;2023-05-19T14:53:58;7.88;;;3.78;;
65717;SDS011;52445;52.466;-1.016;2023-05-19T14:56:25;9.77;;;3.78;;
65717;SDS011;52445;52.466;-1.016;2023-05-19T14:58:52;9.52;;;3.65;;
65717;SDS011;52445;52.466;-1.016;2023-05-19T15:01:19;9.98;;;4.10;;
65717;SDS011;52445;52.466;-1.016;2023-05-19T15:03:45;7.78;;;3.72;;
65717;SDS011;52445;52.466;-1.016;2023-05-19T15:06:12;6.93;;;3.58;;